createdAt,value
2022-12-23T00:01:05.080Z,16.95
2022-12-23T00:03:33.578Z,15.95
2022-12-23T00:06:01.445Z,18.00
2022-12-23T00:08:28.907Z,16.00
2022-12-23T00:10:57.943Z,16.15
2022-12-23T00:13:44.379Z,15.53
2022-12-23T00:16:13.906Z,15.15
2022-12-23T00:18:43.459Z,15.90
2022-12-23T00:21:13.776Z,14.90
2022-12-23T00:23:44.853Z,13.65
2022-12-23T00:26:18.516Z,14.60
2022-12-23T00:28:48.583Z,13.93
2022-12-23T00:31:18.997Z,13.55
2022-12-23T00:33:48.810Z,15.18
2022-12-23T00:36:27.873Z,13.95
2022-12-23T00:39:17.558Z,13.55
2022-12-23T00:42:04.040Z,13.13
2022-12-23T00:44:31.696Z,12.10
2022-12-23T00:46:59.060Z,12.32
2022-12-23T00:49:44.764Z,12.32
2022-12-23T00:52:16.114Z,12.38
2022-12-23T00:54:43.538Z,11.90
2022-12-23T00:57:11.864Z,12.00
2022-12-23T00:59:39.270Z,12.60
2022-12-23T01:02:24.988Z,10.95
2022-12-23T01:05:27.621Z,10.13
2022-12-23T01:07:56.131Z,8.55
2022-12-23T01:10:23.489Z,9.15
2022-12-23T01:12:50.899Z,9.70
2022-12-23T01:15:18.256Z,8.30
2022-12-23T01:17:45.578Z,8.40
2022-12-23T01:20:13.366Z,7.80
2022-12-23T01:22:40.667Z,7.72
2022-12-23T01:25:08.764Z,7.72
2022-12-23T01:27:36.281Z,8.55
2022-12-23T01:30:04.617Z,7.88
2022-12-23T01:32:34.111Z,7.72
2022-12-23T01:35:02.497Z,7.15
2022-12-23T01:37:29.872Z,7.80
2022-12-23T01:39:57.231Z,6.85
2022-12-23T01:42:43.262Z,6.85
2022-12-23T01:45:25.346Z,6.05
2022-12-23T01:47:59.279Z,6.57
2022-12-23T01:50:49.484Z,7.15
2022-12-23T01:53:26.474Z,7.05
2022-12-23T01:56:15.819Z,8.05
2022-12-23T01:58:51.324Z,7.18
2022-12-23T02:01:37.969Z,7.85
2022-12-23T02:04:08.559Z,6.93
2022-12-23T02:07:00.318Z,7.15
2022-12-23T02:09:40.670Z,8.20
2022-12-23T02:12:22.245Z,9.30
2022-12-23T02:15:26.234Z,8.82
2022-12-23T02:18:26.143Z,9.60
2022-12-23T02:21:18.638Z,9.60
2022-12-23T02:24:10.225Z,9.85
2022-12-23T02:26:37.544Z,9.27
2022-12-23T02:29:29.076Z,9.75
2022-12-23T02:31:59.445Z,9.88
2022-12-23T02:34:54.853Z,10.00
2022-12-23T02:37:45.232Z,9.75
2022-12-23T02:40:34.766Z,10.57
2022-12-23T02:43:35.259Z,11.35
2022-12-23T02:46:12.130Z,11.13
2022-12-23T02:48:58.113Z,12.65
2022-12-23T02:51:32.280Z,11.65
2022-12-23T02:54:03.730Z,10.93
2022-12-23T02:56:33.438Z,10.60
2022-12-23T02:59:06.905Z,10.63
2022-12-23T03:01:35.185Z,10.80
2022-12-23T03:04:03.004Z,11.35
2022-12-23T03:06:36.322Z,11.10
2022-12-23T03:09:04.678Z,10.93
2022-12-23T03:11:43.814Z,11.73
2022-12-23T03:14:36.563Z,10.07
2022-12-23T03:17:26.112Z,9.87
2022-12-23T03:20:22.170Z,9.38
2022-12-23T03:22:59.501Z,9.93
2022-12-23T03:25:41.049Z,10.43
2022-12-23T03:28:20.220Z,10.93
2022-12-23T03:30:52.880Z,10.50
2022-12-23T03:33:26.360Z,10.95
2022-12-23T03:35:59.898Z,11.18
2022-12-23T03:38:28.595Z,11.38
2022-12-23T03:41:01.105Z,11.00
2022-12-23T03:43:33.982Z,10.90
2022-12-23T03:46:12.014Z,10.77
2022-12-23T03:49:00.023Z,11.77
2022-12-23T03:51:33.664Z,12.75
2022-12-23T03:54:07.051Z,11.50
2022-12-23T03:56:45.229Z,12.57
2022-12-23T03:59:18.764Z,13.23
2022-12-23T04:01:57.864Z,12.82
2022-12-23T04:04:33.234Z,12.73
2022-12-23T04:07:06.804Z,11.88
2022-12-23T04:09:36.794Z,11.27
2022-12-23T04:12:04.908Z,10.77
2022-12-23T04:14:35.390Z,11.75
2022-12-23T04:17:03.057Z,11.40
2022-12-23T04:19:30.653Z,11.35
2022-12-23T04:21:58.207Z,11.85
2022-12-23T04:24:25.968Z,10.52
2022-12-23T04:26:53.326Z,10.90
2022-12-23T04:29:20.687Z,11.88
2022-12-23T04:31:48.170Z,10.75
2022-12-23T04:34:15.708Z,10.40
2022-12-23T04:36:43.139Z,11.35
2022-12-23T04:39:10.527Z,10.48
2022-12-23T04:41:37.941Z,11.05
2022-12-23T04:44:06.006Z,11.52
2022-12-23T04:46:33.491Z,12.30
2022-12-23T04:49:00.880Z,11.35
2022-12-23T04:51:28.267Z,11.68
2022-12-23T04:53:55.663Z,10.68
2022-12-23T04:56:23.465Z,11.20
2022-12-23T04:58:51.224Z,10.57
2022-12-23T05:01:18.779Z,10.80
2022-12-23T05:03:47.151Z,11.88
2022-12-23T05:06:14.528Z,11.73
2022-12-23T05:08:41.846Z,11.82
2022-12-23T05:11:09.218Z,11.93
2022-12-23T05:13:36.610Z,11.25
2022-12-23T05:16:04.265Z,10.93
2022-12-23T05:18:32.128Z,10.88
2022-12-23T05:20:59.619Z,11.82
2022-12-23T05:23:26.999Z,12.25
2022-12-23T05:25:54.841Z,11.23
2022-12-23T05:28:23.539Z,11.73
2022-12-23T05:30:58.530Z,11.30
2022-12-23T05:33:26.600Z,9.90
2022-12-23T05:35:54.005Z,10.35
2022-12-23T05:38:21.810Z,11.75
2022-12-23T05:40:49.374Z,11.23
2022-12-23T05:43:17.154Z,11.07
2022-12-23T05:45:44.868Z,11.35
2022-12-23T05:48:12.559Z,10.93
2022-12-23T05:50:40.688Z,10.85
2022-12-23T05:53:08.749Z,10.90
2022-12-23T05:55:36.573Z,11.80
2022-12-23T05:58:04.066Z,12.88
2022-12-23T06:00:31.771Z,13.80
2022-12-23T06:02:59.725Z,13.70
2022-12-23T06:05:27.513Z,13.73
2022-12-23T06:07:55.380Z,14.32
2022-12-23T06:10:22.784Z,14.18
2022-12-23T06:12:50.257Z,13.95
2022-12-23T06:15:17.709Z,14.45
2022-12-23T06:17:45.214Z,14.82
2022-12-23T06:20:19.947Z,12.73
2022-12-23T06:22:48.382Z,12.88
2022-12-23T06:25:15.819Z,11.20
2022-12-23T06:27:43.640Z,12.25
2022-12-23T06:30:11.533Z,11.00
2022-12-23T06:32:39.389Z,11.38
2022-12-23T06:35:08.901Z,11.07
2022-12-23T06:37:36.597Z,10.10
2022-12-23T06:40:04.694Z,11.50
2022-12-23T06:42:32.512Z,11.45
2022-12-23T06:45:00.006Z,12.93
2022-12-23T06:47:27.364Z,13.68
2022-12-23T06:49:55.563Z,13.32
2022-12-23T06:52:23.322Z,15.88
2022-12-23T06:54:50.920Z,15.55
2022-12-23T06:57:18.581Z,16.00
2022-12-23T06:59:46.150Z,16.23
2022-12-23T07:02:13.705Z,14.77
2022-12-23T07:04:41.933Z,14.60
2022-12-23T07:07:09.605Z,26.83
2022-12-23T07:09:37.172Z,71.72
2022-12-23T07:12:05.174Z,113.20
2022-12-23T07:14:32.871Z,51.75
2022-12-23T07:17:00.489Z,36.47
2022-12-23T07:19:27.941Z,19.15
2022-12-23T07:21:55.368Z,17.85
2022-12-23T07:24:22.741Z,18.42
2022-12-23T07:26:51.199Z,17.88
2022-12-23T07:29:18.584Z,17.83
2022-12-23T07:31:45.999Z,19.10
2022-12-23T07:34:13.575Z,18.98
2022-12-23T07:36:40.949Z,18.23
2022-12-23T07:39:08.429Z,21.00
2022-12-23T07:41:35.962Z,20.95
2022-12-23T07:44:07.929Z,23.97
2022-12-23T07:46:35.825Z,22.00
2022-12-23T07:49:03.907Z,22.15
2022-12-23T07:51:32.158Z,20.40
2022-12-23T07:53:59.625Z,19.53
2022-12-23T07:56:27.126Z,18.23
2022-12-23T07:58:55.085Z,20.27
2022-12-23T08:01:23.532Z,21.23
2022-12-23T08:03:51.470Z,18.00
2022-12-23T08:06:20.106Z,16.30
2022-12-23T08:08:47.795Z,20.45
2022-12-23T08:11:16.473Z,17.67
2022-12-23T08:13:45.687Z,17.02
2022-12-23T08:16:13.435Z,17.05
2022-12-23T08:18:42.368Z,16.53
2022-12-23T08:21:16.081Z,16.20
2022-12-23T08:23:43.979Z,16.90
2022-12-23T08:26:29.545Z,16.92
2022-12-23T08:28:57.007Z,15.75
2022-12-23T08:31:32.128Z,16.93
2022-12-23T08:34:00.906Z,16.80
2022-12-23T08:36:32.015Z,16.45
2022-12-23T08:39:02.341Z,16.15
2022-12-23T08:41:32.493Z,16.63
2022-12-23T08:44:00.347Z,17.47
2022-12-23T08:46:28.503Z,16.65
2022-12-23T08:48:56.584Z,16.17
2022-12-23T08:51:26.231Z,16.85
2022-12-23T08:54:00.896Z,17.63
2022-12-23T08:56:35.437Z,17.93
2022-12-23T08:59:03.642Z,18.58
2022-12-23T09:01:34.007Z,18.13
2022-12-23T09:04:06.604Z,18.42
2022-12-23T09:06:37.364Z,17.70
2022-12-23T09:09:05.675Z,17.93
2022-12-23T09:11:33.993Z,19.10
2022-12-23T09:14:01.886Z,19.10
2022-12-23T09:16:30.158Z,18.05
2022-12-23T09:18:57.844Z,18.85
2022-12-23T09:21:25.428Z,19.03
2022-12-23T09:23:53.089Z,19.67
2022-12-23T09:26:26.835Z,20.80
2022-12-23T09:28:55.243Z,20.83
2022-12-23T09:31:26.887Z,22.55
2022-12-23T09:33:58.272Z,22.13
2022-12-23T09:36:26.627Z,24.40
2022-12-23T09:38:55.793Z,24.23
2022-12-23T09:41:38.795Z,38.20
2022-12-23T09:44:24.457Z,25.45
2022-12-23T09:46:57.207Z,29.10
2022-12-23T09:49:24.849Z,25.50
2022-12-23T09:51:57.512Z,25.30
2022-12-23T09:54:32.742Z,26.25
2022-12-23T09:57:15.836Z,26.45
2022-12-23T09:59:46.451Z,24.87
2022-12-23T10:02:32.187Z,25.10
2022-12-23T10:05:47.070Z,25.77
2022-12-23T10:08:29.436Z,27.75
2022-12-23T10:11:02.866Z,27.85
2022-12-23T10:13:41.803Z,28.53
2022-12-23T10:16:18.531Z,27.30
2022-12-23T10:18:55.920Z,28.50
2022-12-23T10:21:45.373Z,26.60
2022-12-23T10:24:24.994Z,26.73
2022-12-23T10:26:53.706Z,28.27
2022-12-23T10:29:26.331Z,26.95
2022-12-23T10:32:01.909Z,28.52
2022-12-23T10:35:22.907Z,28.15
2022-12-23T10:38:00.449Z,27.17
2022-12-23T10:40:56.091Z,27.77
2022-12-23T10:43:49.884Z,28.23
2022-12-23T10:46:39.335Z,31.75
2022-12-23T10:49:20.614Z,30.83
2022-12-23T10:51:50.119Z,26.42
2022-12-23T10:54:27.427Z,24.77
2022-12-23T10:56:55.498Z,25.15
2022-12-23T10:59:27.337Z,28.60
2022-12-23T11:02:13.549Z,26.42
2022-12-23T11:04:46.545Z,25.55
2022-12-23T11:10:21.491Z,25.67
2022-12-23T11:12:51.649Z,24.75
2022-12-23T11:15:32.864Z,24.90
2022-12-23T11:18:17.673Z,24.75
2022-12-23T11:21:01.968Z,24.83
2022-12-23T11:23:33.500Z,25.55
2022-12-23T11:26:05.328Z,23.42
2022-12-23T11:28:35.164Z,23.80
2022-12-23T11:31:14.735Z,28.13
2022-12-23T11:33:52.503Z,26.80
2022-12-23T11:36:24.285Z,24.63
2022-12-23T11:39:28.695Z,25.30
2022-12-23T11:42:06.312Z,27.33
2022-12-23T11:44:40.632Z,23.10
2022-12-23T11:47:23.550Z,23.03
2022-12-23T11:49:56.472Z,23.58
2022-12-23T11:52:26.154Z,23.50
2022-12-23T11:54:57.213Z,24.20
2022-12-23T11:57:48.951Z,23.20
2022-12-23T12:00:26.178Z,24.27
2022-12-23T12:02:57.083Z,21.58
2022-12-23T12:05:41.432Z,21.75
2022-12-23T12:08:15.689Z,19.23
2022-12-23T12:10:43.953Z,19.17
2022-12-23T12:13:31.051Z,17.77
2022-12-23T12:16:13.864Z,20.92
2022-12-23T12:18:44.072Z,19.98
2022-12-23T12:21:16.542Z,22.13
2022-12-23T12:24:08.414Z,20.40
2022-12-23T12:26:39.033Z,20.63
2022-12-23T12:29:28.793Z,19.60
2022-12-23T12:31:59.989Z,21.02
2022-12-23T12:34:51.883Z,21.23
2022-12-23T12:37:28.073Z,19.85
2022-12-23T12:40:01.560Z,22.47
2022-12-23T12:42:43.195Z,22.23
2022-12-23T12:45:48.422Z,20.83
2022-12-23T12:48:18.807Z,20.55
2022-12-23T12:51:28.107Z,20.15
2022-12-23T12:54:05.662Z,19.03
2022-12-23T12:56:53.277Z,19.35
2022-12-23T12:59:26.019Z,18.70
2022-12-23T13:02:18.508Z,16.67
2022-12-23T13:05:13.211Z,17.15
2022-12-23T13:09:24.544Z,18.35
2022-12-23T13:12:10.412Z,22.45
2022-12-23T13:15:04.796Z,27.97
2022-12-23T13:17:52.380Z,43.60
2022-12-23T13:20:33.281Z,41.55
2022-12-23T13:23:41.828Z,31.73
2022-12-23T13:26:10.666Z,31.50
2022-12-23T13:29:04.864Z,28.97
2022-12-23T13:31:32.589Z,34.70
2022-12-23T13:34:37.469Z,35.75
2022-12-23T13:37:39.814Z,35.08
2022-12-23T13:40:25.811Z,32.65
2022-12-23T13:42:57.868Z,29.77
2022-12-23T13:45:33.378Z,31.35
2022-12-23T13:48:22.477Z,25.38
2022-12-23T13:51:13.410Z,26.90
2022-12-23T13:54:13.108Z,24.90
2022-12-23T13:56:48.760Z,27.30
2022-12-23T13:59:16.995Z,26.08
2022-12-23T14:01:49.959Z,25.65
2022-12-23T14:04:38.110Z,22.33
2022-12-23T14:07:27.425Z,21.00
2022-12-23T14:10:09.316Z,20.30
2022-12-23T14:12:39.993Z,29.95
2022-12-23T14:15:22.982Z,29.92
2022-12-23T14:17:50.652Z,33.88
2022-12-23T14:20:39.428Z,35.65
2022-12-23T14:23:18.403Z,25.90
2022-12-23T14:26:21.216Z,21.05
2022-12-23T14:28:58.079Z,19.67
2022-12-23T14:31:42.798Z,21.38
2022-12-23T14:34:19.575Z,23.27
2022-12-23T14:37:24.628Z,23.63
2022-12-23T14:39:52.823Z,24.95
2022-12-23T14:42:40.832Z,21.92
2022-12-23T14:45:35.808Z,20.70
2022-12-23T14:48:34.978Z,20.77
2022-12-23T14:51:09.162Z,21.50
2022-12-23T14:53:57.409Z,23.02
2022-12-23T14:56:43.537Z,25.67
2022-12-23T14:59:10.798Z,22.52
2022-12-23T15:01:55.992Z,20.52
2022-12-23T15:04:28.056Z,18.03
2022-12-23T15:07:21.278Z,18.95
2022-12-23T15:10:00.331Z,17.67
2022-12-23T15:12:33.839Z,17.52
2022-12-23T15:15:16.635Z,16.50
2022-12-23T15:17:43.995Z,16.50
2022-12-23T15:20:11.415Z,18.45
2022-12-23T15:22:40.470Z,27.20
2022-12-23T15:25:28.003Z,30.58
2022-12-23T15:28:01.460Z,26.02
2022-12-23T15:30:46.520Z,23.38
2022-12-23T15:33:51.784Z,24.85
2022-12-23T15:36:07.569Z,25.25
2022-12-23T15:38:38.045Z,24.25
2022-12-23T15:41:14.203Z,24.48
2022-12-23T15:43:42.878Z,23.75
2022-12-23T15:46:17.103Z,23.60
2022-12-23T15:48:45.527Z,24.00
2022-12-23T15:51:57.882Z,25.75
2022-12-23T15:54:38.230Z,18.35
2022-12-23T15:57:06.295Z,15.52
2022-12-23T15:59:38.648Z,16.42
2022-12-23T16:02:58.910Z,17.17
2022-12-23T16:05:13.048Z,17.85
2022-12-23T16:07:42.278Z,21.42
2022-12-23T16:10:16.383Z,26.38
2022-12-23T16:12:44.533Z,32.63
2022-12-23T16:15:27.615Z,36.55
2022-12-23T16:18:20.190Z,40.55
2022-12-23T16:20:58.493Z,34.67
2022-12-23T16:23:30.817Z,28.30
2022-12-23T16:26:00.652Z,27.08
2022-12-23T16:28:39.752Z,30.77
2022-12-23T16:31:08.344Z,26.08
2022-12-23T16:33:39.990Z,24.38
2022-12-23T16:36:34.447Z,26.95
2022-12-23T16:39:07.794Z,27.13
2022-12-23T16:41:35.834Z,25.13
2022-12-23T16:44:03.836Z,22.50
2022-12-23T16:46:39.065Z,22.85
2022-12-23T16:49:11.771Z,22.77
2022-12-23T16:51:40.845Z,25.63
2022-12-23T16:54:17.869Z,29.05
2022-12-23T16:56:47.146Z,26.13
2022-12-23T16:59:15.126Z,27.08
2022-12-23T17:01:47.020Z,33.75
2022-12-23T17:04:15.484Z,36.97
2022-12-23T17:06:42.957Z,36.58
2022-12-23T17:09:12.546Z,28.00
2022-12-23T17:11:47.231Z,21.25
2022-12-23T17:14:20.770Z,15.45
2022-12-23T17:16:49.053Z,14.88
2022-12-23T17:19:23.337Z,14.60
2022-12-23T17:22:02.504Z,17.30
2022-12-23T17:24:29.926Z,21.13
2022-12-23T17:26:57.591Z,22.23
2022-12-23T17:29:25.275Z,22.27
2022-12-23T17:31:53.256Z,21.33
2022-12-23T17:34:23.430Z,19.90
2022-12-23T17:36:51.567Z,19.17
2022-12-23T17:39:20.640Z,22.20
2022-12-23T17:41:48.837Z,19.17
2022-12-23T17:44:17.684Z,18.50
2022-12-23T17:46:46.599Z,22.35
2022-12-23T17:49:14.484Z,20.02
2022-12-23T17:51:43.242Z,22.17
2022-12-23T17:54:24.838Z,24.25
2022-12-23T17:56:54.065Z,38.72
2022-12-23T17:59:21.837Z,47.22
2022-12-23T18:01:49.629Z,30.55
2022-12-23T18:04:17.051Z,36.20
2022-12-23T18:06:44.408Z,26.10
2022-12-23T18:09:13.437Z,25.63
2022-12-23T18:11:44.371Z,21.42
2022-12-23T18:14:32.302Z,21.75
2022-12-23T18:17:00.379Z,24.17
2022-12-23T18:19:29.683Z,27.10
2022-12-23T18:21:57.877Z,24.38
2022-12-23T18:24:25.516Z,23.92
2022-12-23T18:26:53.207Z,23.25
2022-12-23T18:29:20.718Z,22.38
2022-12-23T18:31:52.251Z,21.83
2022-12-23T18:34:20.721Z,21.00
2022-12-23T18:36:48.990Z,15.45
2022-12-23T18:39:17.107Z,16.40
2022-12-23T18:41:44.470Z,18.85
2022-12-23T18:44:21.600Z,25.58
2022-12-23T18:46:50.501Z,23.55
2022-12-23T18:49:18.067Z,19.02
2022-12-23T18:51:46.447Z,20.20
2022-12-23T18:54:17.523Z,19.23
2022-12-23T18:56:45.277Z,23.08
2022-12-23T18:59:29.529Z,18.45
2022-12-23T19:01:58.268Z,16.30
2022-12-23T19:04:27.089Z,17.63
2022-12-23T19:06:56.449Z,17.38
2022-12-23T19:09:27.513Z,34.60
2022-12-23T19:11:55.937Z,19.63
2022-12-23T19:14:23.655Z,17.95
2022-12-23T19:16:52.617Z,18.33
2022-12-23T19:19:21.453Z,17.38
2022-12-23T19:21:48.815Z,19.58
2022-12-23T19:24:16.789Z,19.70
2022-12-23T19:26:44.303Z,19.50
2022-12-23T19:29:11.724Z,16.88
2022-12-23T19:31:42.286Z,17.48
2022-12-23T19:34:15.031Z,17.73
2022-12-23T19:36:43.334Z,18.35
2022-12-23T19:39:16.895Z,18.77
2022-12-23T19:41:45.323Z,19.75
2022-12-23T19:44:13.136Z,19.05
2022-12-23T19:46:41.020Z,19.05
2022-12-23T19:49:09.942Z,19.05
2022-12-23T19:51:39.126Z,20.58
2022-12-23T19:54:06.531Z,16.10
2022-12-23T19:56:35.627Z,18.58
2022-12-23T19:59:03.186Z,29.42
2022-12-23T20:01:30.756Z,23.67
2022-12-23T20:03:58.292Z,22.73
2022-12-23T20:06:29.901Z,22.35
2022-12-23T20:09:00.964Z,20.70
2022-12-23T20:11:30.917Z,17.92
2022-12-23T20:13:59.860Z,16.67
2022-12-23T20:16:29.519Z,16.50
2022-12-23T20:18:58.021Z,17.55
2022-12-23T20:21:25.779Z,16.00
2022-12-23T20:23:53.338Z,16.02
2022-12-23T20:26:21.746Z,17.38
2022-12-23T20:28:49.325Z,15.77
2022-12-23T20:31:21.100Z,15.15
2022-12-23T20:33:50.236Z,17.63
2022-12-23T20:36:21.090Z,16.48
2022-12-23T20:38:49.123Z,25.52
2022-12-23T20:41:18.937Z,24.25
2022-12-23T20:44:02.741Z,18.67
2022-12-23T20:46:34.610Z,14.63
2022-12-23T20:49:02.099Z,18.10
2022-12-23T20:51:29.851Z,22.02
2022-12-23T20:54:01.545Z,21.58
2022-12-23T20:56:30.629Z,19.50
2022-12-23T20:58:59.626Z,25.25
2022-12-23T21:01:31.482Z,19.80
2022-12-23T21:04:00.984Z,15.85
2022-12-23T21:06:30.785Z,18.00
2022-12-23T21:09:00.127Z,17.27
2022-12-23T21:11:33.165Z,15.95
2022-12-23T21:14:06.762Z,14.50
2022-12-23T21:16:36.798Z,14.15
2022-12-23T21:19:05.764Z,12.68
2022-12-23T21:21:33.691Z,12.73
2022-12-23T21:24:04.908Z,12.05
2022-12-23T21:26:35.292Z,11.02
2022-12-23T21:29:07.808Z,12.73
2022-12-23T21:31:37.727Z,12.90
2022-12-23T21:34:06.356Z,12.55
2022-12-23T21:36:37.050Z,12.02
2022-12-23T21:39:06.134Z,12.02
2022-12-23T21:41:39.271Z,12.00
2022-12-23T21:44:07.087Z,11.20
2022-12-23T21:46:34.900Z,11.38
2022-12-23T21:49:02.436Z,12.10
2022-12-23T21:51:39.519Z,10.95
2022-12-23T21:54:11.871Z,11.40
2022-12-23T21:56:40.968Z,11.63
2022-12-23T21:59:12.354Z,11.80
2022-12-23T22:01:40.440Z,11.38
2022-12-23T22:04:09.875Z,11.73
2022-12-23T22:06:41.370Z,12.13
2022-12-23T22:09:10.539Z,11.60
2022-12-23T22:11:38.641Z,11.68
2022-12-23T22:14:09.018Z,11.50
2022-12-23T22:16:36.951Z,11.30
2022-12-23T22:19:05.872Z,13.23
2022-12-23T22:21:34.936Z,11.38
2022-12-23T22:24:03.517Z,12.18
2022-12-23T22:26:33.253Z,11.25
2022-12-23T22:29:04.552Z,12.23
2022-12-23T22:31:40.194Z,11.23
2022-12-23T22:34:09.051Z,11.95
2022-12-23T22:36:36.712Z,11.90
2022-12-23T22:39:04.406Z,12.73
2022-12-23T22:41:31.870Z,13.77
2022-12-23T22:43:59.957Z,13.25
2022-12-23T22:46:28.245Z,13.02
2022-12-23T22:48:56.729Z,12.63
2022-12-23T22:51:26.958Z,13.55
2022-12-23T22:53:55.418Z,12.85
2022-12-23T22:56:23.911Z,13.35
2022-12-23T22:58:53.411Z,12.35
2022-12-23T23:01:31.952Z,13.45
2022-12-23T23:04:02.094Z,13.65
2022-12-23T23:06:38.808Z,12.88
2022-12-23T23:09:08.111Z,14.20
2022-12-23T23:11:35.953Z,13.77
2022-12-23T23:14:04.140Z,14.65
2022-12-23T23:16:32.046Z,15.00
2022-12-23T23:19:00.229Z,14.38
2022-12-23T23:21:27.958Z,14.00
2022-12-23T23:23:55.416Z,14.20
2022-12-23T23:26:27.185Z,14.93
2022-12-23T23:28:55.661Z,16.67
2022-12-23T23:34:12.248Z,15.63
2022-12-23T23:36:40.430Z,17.48
2022-12-23T23:39:08.669Z,17.70
2022-12-23T23:41:36.248Z,16.45
2022-12-23T23:44:04.026Z,18.25
2022-12-23T23:46:32.392Z,16.52
2022-12-23T23:48:59.942Z,16.42
2022-12-23T23:51:27.557Z,15.13
2022-12-23T23:53:54.882Z,14.77
2022-12-23T23:56:25.858Z,13.88
2022-12-23T23:58:54.562Z,11.88
